createdAt,value
2023-03-10T00:00:16.244Z,1.41
2023-03-10T00:02:49.488Z,1.30
2023-03-10T00:05:18.605Z,1.18
2023-03-10T00:07:45.758Z,1.23
2023-03-10T00:10:14.276Z,1.15
2023-03-10T00:12:41.226Z,1.10
2023-03-10T00:15:08.946Z,1.13
2023-03-10T00:17:35.755Z,1.20
2023-03-10T00:20:07.989Z,1.14
2023-03-10T00:22:35.547Z,1.26
2023-03-10T00:25:02.511Z,0.85
2023-03-10T00:27:29.257Z,0.94
2023-03-10T00:29:56.079Z,0.96
2023-03-10T00:32:22.897Z,0.81
2023-03-10T00:34:49.749Z,0.84
2023-03-10T00:37:16.794Z,0.79
2023-03-10T00:39:43.543Z,0.93
2023-03-10T00:42:10.303Z,1.02
2023-03-10T00:44:37.239Z,0.89
2023-03-10T00:47:04.058Z,0.86
2023-03-10T00:49:30.792Z,0.95
2023-03-10T00:51:57.509Z,1.04
2023-03-10T00:54:24.331Z,0.90
2023-03-10T00:56:51.101Z,0.96
2023-03-10T00:59:17.933Z,0.91
2023-03-10T01:01:44.896Z,0.91
2023-03-10T01:04:14.280Z,0.82
2023-03-10T01:06:41.085Z,0.73
2023-03-10T01:09:08.315Z,0.68
2023-03-10T01:11:35.222Z,0.72
2023-03-10T01:14:04.682Z,0.79
2023-03-10T01:16:32.000Z,0.56
2023-03-10T01:18:59.342Z,0.58
2023-03-10T01:21:29.001Z,0.61
2023-03-10T01:23:55.776Z,0.61
2023-03-10T01:26:22.636Z,0.66
2023-03-10T01:28:50.048Z,0.73
2023-03-10T01:31:17.439Z,0.73
2023-03-10T01:33:45.731Z,0.77
2023-03-10T01:36:21.702Z,0.78
2023-03-10T01:38:48.705Z,0.84
2023-03-10T01:41:16.361Z,0.89
2023-03-10T01:43:45.753Z,0.87
2023-03-10T01:46:27.709Z,0.71
2023-03-10T01:49:01.329Z,0.76
2023-03-10T01:51:30.434Z,0.66
2023-03-10T01:53:57.215Z,0.77
2023-03-10T01:56:24.046Z,0.68
2023-03-10T01:58:51.227Z,0.70
2023-03-10T02:01:18.558Z,0.71
2023-03-10T02:04:08.384Z,0.77
2023-03-10T02:06:36.438Z,0.62
2023-03-10T02:09:04.425Z,0.61
2023-03-10T02:11:31.307Z,0.53
2023-03-10T02:13:57.984Z,0.61
2023-03-10T02:16:24.707Z,0.59
2023-03-10T02:18:51.561Z,0.58
2023-03-10T02:21:37.060Z,0.57
2023-03-10T02:24:12.620Z,0.62
2023-03-10T02:27:18.688Z,0.53
2023-03-10T02:29:58.764Z,0.48
2023-03-10T02:32:27.175Z,0.23
2023-03-10T02:34:54.151Z,0.06
2023-03-10T02:37:24.107Z,0.13
2023-03-10T02:39:50.833Z,0.18
2023-03-10T02:42:18.642Z,0.13
2023-03-10T02:44:46.493Z,0.09
2023-03-10T02:47:13.471Z,0.02
2023-03-10T02:49:40.932Z,-0.27
2023-03-10T02:52:12.840Z,-0.06
2023-03-10T02:54:39.519Z,0.03
2023-03-10T02:57:06.327Z,-0.03
2023-03-10T02:59:33.041Z,0.00
2023-03-10T03:01:59.799Z,-0.04
2023-03-10T03:04:26.589Z,0.06
2023-03-10T03:06:53.336Z,-0.10
2023-03-10T03:09:20.001Z,-0.08
2023-03-10T03:11:46.757Z,-0.04
2023-03-10T03:14:13.540Z,-0.11
2023-03-10T03:16:40.270Z,-0.10
2023-03-10T03:19:07.183Z,-0.03
2023-03-10T03:21:33.946Z,0.03
2023-03-10T03:24:00.690Z,0.09
2023-03-10T03:26:27.597Z,0.07
2023-03-10T03:28:54.416Z,0.01
2023-03-10T03:31:23.234Z,0.05
2023-03-10T03:33:50.422Z,0.03
2023-03-10T03:36:17.303Z,0.01
2023-03-10T03:38:44.078Z,-0.02
2023-03-10T03:41:10.874Z,-0.03
2023-03-10T03:43:37.704Z,0.00
2023-03-10T03:46:04.944Z,-0.15
2023-03-10T03:48:31.817Z,-0.21
2023-03-10T03:50:58.579Z,-0.10
2023-03-10T03:53:25.357Z,-0.12
2023-03-10T03:55:52.156Z,-0.25
2023-03-10T03:58:19.342Z,-0.15
2023-03-10T04:00:46.258Z,-0.16
2023-03-10T04:03:13.050Z,-0.17
2023-03-10T04:05:40.236Z,-0.10
2023-03-10T04:08:07.270Z,-0.06
2023-03-10T04:10:34.175Z,-0.06
2023-03-10T04:13:00.875Z,-0.30
2023-03-10T04:15:27.650Z,-0.23
2023-03-10T04:17:54.376Z,-0.27
2023-03-10T04:20:21.294Z,-0.18
2023-03-10T04:22:48.060Z,-0.43
2023-03-10T04:25:15.145Z,-0.45
2023-03-10T04:27:42.049Z,-0.53
2023-03-10T04:30:12.156Z,-0.65
2023-03-10T04:32:39.080Z,-0.69
2023-03-10T04:35:06.553Z,-0.72
2023-03-10T04:37:33.423Z,-0.64
2023-03-10T04:40:02.177Z,-0.70
2023-03-10T04:42:28.937Z,-0.87
2023-03-10T04:44:55.639Z,-0.78
2023-03-10T04:47:22.413Z,-0.73
2023-03-10T04:49:49.160Z,-0.80
2023-03-10T04:52:16.002Z,-0.81
2023-03-10T04:54:42.780Z,-0.78
2023-03-10T04:57:09.724Z,-0.79
2023-03-10T04:59:36.530Z,-0.75
2023-03-10T05:02:03.368Z,-0.69
2023-03-10T05:04:30.383Z,-0.64
2023-03-10T05:06:57.190Z,-0.59
2023-03-10T05:09:23.908Z,-0.72
2023-03-10T05:11:50.647Z,-0.57
2023-03-10T05:14:17.536Z,-0.62
2023-03-10T05:16:44.677Z,-0.83
2023-03-10T05:19:11.503Z,-0.86
2023-03-10T05:21:38.129Z,-0.96
2023-03-10T05:24:04.974Z,-0.90
2023-03-10T05:26:34.707Z,-0.85
2023-03-10T05:29:01.602Z,-0.77
2023-03-10T05:31:28.307Z,-0.74
2023-03-10T05:33:54.947Z,-0.65
2023-03-10T05:36:22.012Z,-0.64
2023-03-10T05:38:49.020Z,-0.65
2023-03-10T05:41:16.211Z,-0.62
2023-03-10T05:43:43.060Z,-0.81
2023-03-10T05:46:09.867Z,-0.66
2023-03-10T05:48:36.560Z,-0.59
2023-03-10T05:51:09.084Z,-0.63
2023-03-10T05:53:36.849Z,-0.46
2023-03-10T05:56:08.408Z,-0.36
2023-03-10T05:58:35.401Z,-0.52
2023-03-10T06:01:02.362Z,-0.61
2023-03-10T06:03:30.263Z,-0.52
2023-03-10T06:05:58.331Z,-0.62
2023-03-10T06:08:26.716Z,-0.70
2023-03-10T06:10:53.568Z,-0.25
2023-03-10T06:13:20.731Z,-0.16
2023-03-10T06:15:58.720Z,0.09
2023-03-10T06:18:26.166Z,-0.27
2023-03-10T06:20:53.767Z,-0.30
2023-03-10T06:23:21.642Z,-0.16
2023-03-10T06:25:59.588Z,0.16
2023-03-10T06:28:32.992Z,-0.01
2023-03-10T06:31:00.952Z,0.12
2023-03-10T06:33:28.609Z,0.39
2023-03-10T06:35:55.814Z,0.21
2023-03-10T06:38:23.005Z,0.19
2023-03-10T06:40:50.183Z,0.77
2023-03-10T06:43:17.064Z,1.07
2023-03-10T06:45:45.043Z,1.07
2023-03-10T06:48:12.313Z,1.17
2023-03-10T06:50:43.944Z,1.41
2023-03-10T06:53:11.449Z,1.75
2023-03-10T06:55:38.276Z,1.30
2023-03-10T06:58:05.177Z,1.45
2023-03-10T07:00:31.991Z,1.51
2023-03-10T07:02:58.942Z,1.20
2023-03-10T07:05:27.493Z,1.37
2023-03-10T07:07:55.363Z,1.07
2023-03-10T07:10:23.083Z,1.22
2023-03-10T07:12:55.225Z,1.32
2023-03-10T07:15:26.120Z,1.98
2023-03-10T07:17:52.974Z,2.18
2023-03-10T07:20:19.762Z,2.46
2023-03-10T07:22:46.573Z,2.02
2023-03-10T07:25:13.309Z,1.62
2023-03-10T07:27:40.085Z,1.88
2023-03-10T07:30:07.700Z,2.19
2023-03-10T07:32:34.675Z,2.03
2023-03-10T07:35:01.481Z,2.25
2023-03-10T07:37:28.246Z,2.14
2023-03-10T07:39:55.540Z,2.58
2023-03-10T07:42:22.849Z,2.64
2023-03-10T07:44:49.663Z,3.28
2023-03-10T07:47:16.375Z,3.73
2023-03-10T07:49:47.049Z,3.75
2023-03-10T07:52:18.317Z,4.26
2023-03-10T07:54:45.143Z,4.74
2023-03-10T07:57:13.389Z,3.96
2023-03-10T07:59:41.503Z,4.33
2023-03-10T08:02:12.416Z,4.58
2023-03-10T08:04:39.485Z,4.66
2023-03-10T08:07:06.598Z,4.69
2023-03-10T08:09:33.333Z,5.14
2023-03-10T08:12:00.721Z,5.11
2023-03-10T08:14:31.239Z,5.48
2023-03-10T08:16:58.217Z,5.01
2023-03-10T08:19:26.257Z,5.13
2023-03-10T08:21:57.775Z,6.07
2023-03-10T08:24:25.656Z,5.98
2023-03-10T08:26:52.529Z,6.05
2023-03-10T08:29:19.638Z,6.40
2023-03-10T08:31:46.449Z,7.08
2023-03-10T08:34:14.197Z,6.99
2023-03-10T08:36:41.146Z,7.13
2023-03-10T08:39:08.709Z,6.44
2023-03-10T08:41:45.745Z,6.13
2023-03-10T08:44:15.635Z,6.89
2023-03-10T08:46:46.397Z,6.73
2023-03-10T08:49:14.995Z,6.78
2023-03-10T08:51:41.831Z,7.94
2023-03-10T08:54:10.608Z,8.57
2023-03-10T08:56:37.533Z,8.71
2023-03-10T08:59:05.045Z,8.59
2023-03-10T09:01:34.354Z,8.48
2023-03-10T09:04:02.511Z,8.57
2023-03-10T09:06:29.472Z,9.05
2023-03-10T09:08:56.273Z,8.58
2023-03-10T09:11:28.874Z,8.00
2023-03-10T09:13:56.019Z,8.15
2023-03-10T09:16:22.916Z,7.81
2023-03-10T09:18:49.795Z,7.89
2023-03-10T09:21:18.809Z,8.12
2023-03-10T09:23:47.702Z,7.82
2023-03-10T09:26:14.792Z,8.19
2023-03-10T09:28:41.651Z,8.93
2023-03-10T09:31:09.830Z,9.49
2023-03-10T09:33:36.882Z,9.43
2023-03-10T09:36:07.854Z,9.20
2023-03-10T09:38:36.505Z,9.75
2023-03-10T09:41:37.685Z,10.15
2023-03-10T09:44:17.214Z,10.80
2023-03-10T09:47:07.351Z,9.98
2023-03-10T09:50:22.306Z,10.28
2023-03-10T09:53:25.833Z,9.54
2023-03-10T09:55:53.624Z,9.71
2023-03-10T09:58:34.080Z,9.95
2023-03-10T10:01:01.625Z,9.51
2023-03-10T10:03:51.484Z,9.49
2023-03-10T10:06:24.706Z,10.27
2023-03-10T10:09:28.290Z,10.94
2023-03-10T10:11:56.066Z,11.84
2023-03-10T10:14:31.046Z,12.10
2023-03-10T10:17:26.410Z,12.66
2023-03-10T10:19:53.577Z,12.89
2023-03-10T10:22:31.452Z,12.70
2023-03-10T10:25:13.189Z,12.29
2023-03-10T10:27:41.835Z,12.45
2023-03-10T10:30:28.916Z,12.63
2023-03-10T10:33:01.099Z,12.88
2023-03-10T10:35:30.806Z,12.25
2023-03-10T10:38:03.124Z,11.54
2023-03-10T10:40:33.732Z,11.05
2023-03-10T10:43:01.119Z,11.45
2023-03-10T10:45:36.575Z,11.26
2023-03-10T10:48:04.356Z,11.51
2023-03-10T10:50:35.666Z,11.58
2023-03-10T10:53:19.120Z,11.45
2023-03-10T10:55:49.316Z,10.99
2023-03-10T10:58:30.863Z,11.16
2023-03-10T11:01:04.099Z,10.97
2023-03-10T11:03:37.289Z,10.73
2023-03-10T11:06:27.682Z,10.51
2023-03-10T11:09:04.743Z,10.70
2023-03-10T11:12:01.987Z,10.67
2023-03-10T11:15:01.726Z,10.78
2023-03-10T11:17:38.571Z,10.73
2023-03-10T11:20:14.138Z,10.92
2023-03-10T11:22:55.131Z,10.86
2023-03-10T11:25:40.691Z,11.13
2023-03-10T11:28:19.200Z,11.03
2023-03-10T11:31:12.026Z,11.27
2023-03-10T11:34:16.733Z,11.74
2023-03-10T11:37:01.833Z,12.06
2023-03-10T11:39:37.668Z,12.22
2023-03-10T11:42:33.374Z,12.48
2023-03-10T11:45:18.198Z,12.69
2023-03-10T11:48:22.523Z,12.60
2023-03-10T11:50:55.437Z,12.60
2023-03-10T11:53:47.942Z,12.64
2023-03-10T11:56:16.267Z,12.63
2023-03-10T11:58:57.097Z,12.82
2023-03-10T12:01:44.050Z,13.04
2023-03-10T12:04:16.938Z,13.12
2023-03-10T12:07:05.283Z,13.33
2023-03-10T12:09:42.507Z,13.51
2023-03-10T12:12:24.521Z,13.72
2023-03-10T12:14:53.657Z,13.57
2023-03-10T12:17:20.521Z,13.68
2023-03-10T12:20:15.984Z,13.78
2023-03-10T12:22:46.510Z,13.67
2023-03-10T12:25:28.612Z,13.94
2023-03-10T12:28:16.878Z,13.58
2023-03-10T12:30:58.122Z,13.56
2023-03-10T12:33:30.850Z,13.81
2023-03-10T12:36:05.450Z,13.79
2023-03-10T12:38:42.763Z,13.25
2023-03-10T12:41:10.538Z,13.49
2023-03-10T12:43:43.359Z,13.39
2023-03-10T12:46:12.601Z,13.34
2023-03-10T12:48:43.798Z,13.29
2023-03-10T12:51:13.689Z,13.18
2023-03-10T12:53:53.158Z,13.30
2023-03-10T12:56:24.877Z,13.49
2023-03-10T12:59:03.513Z,13.39
2023-03-10T13:01:35.174Z,13.43
2023-03-10T13:04:06.806Z,13.24
2023-03-10T13:06:37.643Z,13.28
2023-03-10T13:09:39.104Z,13.71
2023-03-10T13:12:21.842Z,14.09
2023-03-10T13:14:54.573Z,14.45
2023-03-10T13:17:25.696Z,14.40
2023-03-10T13:20:19.523Z,14.72
2023-03-10T13:22:57.741Z,14.82
2023-03-10T13:25:25.634Z,14.98
2023-03-10T13:27:52.874Z,15.18
2023-03-10T13:30:26.694Z,14.83
2023-03-10T13:32:54.433Z,14.90
2023-03-10T13:35:37.068Z,14.83
2023-03-10T13:38:24.689Z,15.11
2023-03-10T13:40:57.428Z,14.97
2023-03-10T13:43:44.269Z,14.69
2023-03-10T13:46:21.577Z,14.78
2023-03-10T13:48:48.781Z,14.75
2023-03-10T13:51:18.323Z,14.87
2023-03-10T13:53:47.872Z,15.34
2023-03-10T13:56:39.559Z,14.73
2023-03-10T13:59:07.230Z,15.07
2023-03-10T14:01:36.689Z,15.08
2023-03-10T14:04:08.946Z,15.25
2023-03-10T14:06:36.853Z,14.93
2023-03-10T14:09:20.917Z,14.87
2023-03-10T14:11:50.539Z,14.62
2023-03-10T14:14:46.603Z,14.58
2023-03-10T14:17:35.205Z,14.74
2023-03-10T14:20:02.043Z,14.71
2023-03-10T14:22:41.587Z,14.72
2023-03-10T14:25:10.317Z,14.63
2023-03-10T14:27:41.072Z,14.52
2023-03-10T14:30:19.338Z,14.54
2023-03-10T14:32:46.208Z,14.43
2023-03-10T14:35:14.310Z,14.60
2023-03-10T14:37:41.111Z,14.49
2023-03-10T14:40:08.831Z,14.39
2023-03-10T14:42:35.567Z,14.36
2023-03-10T14:45:17.815Z,14.44
2023-03-10T14:47:44.896Z,14.67
2023-03-10T14:50:15.441Z,14.46
2023-03-10T14:52:42.158Z,14.69
2023-03-10T14:55:10.059Z,14.32
2023-03-10T14:57:38.851Z,14.44
2023-03-10T15:00:11.162Z,14.35
2023-03-10T15:02:38.462Z,14.10
2023-03-10T15:05:05.524Z,14.00
2023-03-10T15:07:32.280Z,13.70
2023-03-10T15:10:10.622Z,13.46
2023-03-10T15:12:38.784Z,13.44
2023-03-10T15:15:06.214Z,13.48
2023-03-10T15:17:33.003Z,13.35
2023-03-10T15:19:59.908Z,13.10
2023-03-10T15:22:26.650Z,13.09
2023-03-10T15:24:53.402Z,13.17
2023-03-10T15:27:20.102Z,12.78
2023-03-10T15:29:46.862Z,12.87
2023-03-10T15:32:13.547Z,12.41
2023-03-10T15:34:40.327Z,12.11
2023-03-10T15:37:08.737Z,12.13
2023-03-10T15:39:37.242Z,12.09
2023-03-10T15:42:04.505Z,12.00
2023-03-10T15:44:31.270Z,12.08
2023-03-10T15:46:58.066Z,12.09
2023-03-10T15:49:24.949Z,11.54
2023-03-10T15:51:51.727Z,11.04
2023-03-10T15:54:18.520Z,10.79
2023-03-10T15:56:45.298Z,10.60
2023-03-10T15:59:12.263Z,10.52
2023-03-10T16:01:39.797Z,10.44
2023-03-10T16:04:06.739Z,10.41
2023-03-10T16:06:34.195Z,10.14
2023-03-10T16:09:01.475Z,10.22
2023-03-10T16:11:28.320Z,10.13
2023-03-10T16:13:55.152Z,9.92
2023-03-10T16:16:26.520Z,9.99
2023-03-10T16:18:53.514Z,10.22
2023-03-10T16:21:20.790Z,10.40
2023-03-10T16:23:47.696Z,10.28
2023-03-10T16:26:20.569Z,10.33
2023-03-10T16:28:50.713Z,10.17
2023-03-10T16:31:19.891Z,10.14
2023-03-10T16:33:48.250Z,10.12
2023-03-10T16:36:18.351Z,9.95
2023-03-10T16:38:45.557Z,9.96
2023-03-10T16:41:12.870Z,9.79
2023-03-10T16:43:40.324Z,9.71
2023-03-10T16:46:07.058Z,9.75
2023-03-10T16:48:34.673Z,9.89
2023-03-10T16:51:17.523Z,9.64
2023-03-10T16:53:44.310Z,9.64
2023-03-10T16:56:11.087Z,9.66
2023-03-10T16:58:37.846Z,9.73
2023-03-10T17:01:06.702Z,9.70
2023-03-10T17:03:39.510Z,9.65
2023-03-10T17:06:12.098Z,9.64
2023-03-10T17:08:40.177Z,9.45
2023-03-10T17:11:08.283Z,9.50
2023-03-10T17:13:35.166Z,9.43
2023-03-10T17:16:02.503Z,9.44
2023-03-10T17:18:29.502Z,9.43
2023-03-10T17:20:56.371Z,9.47
2023-03-10T17:23:23.909Z,9.44
2023-03-10T17:25:51.963Z,9.40
2023-03-10T17:28:18.698Z,9.40
2023-03-10T17:30:45.718Z,9.44
2023-03-10T17:33:12.387Z,9.28
2023-03-10T17:35:39.409Z,9.25
2023-03-10T17:38:06.128Z,9.06
2023-03-10T17:40:33.951Z,9.07
2023-03-10T17:43:13.178Z,9.23
2023-03-10T17:45:56.990Z,8.96
2023-03-10T17:48:24.017Z,9.09
2023-03-10T17:50:50.798Z,9.02
2023-03-10T17:53:17.563Z,8.80
2023-03-10T17:55:44.330Z,8.85
2023-03-10T17:58:11.086Z,8.70
2023-03-10T18:00:37.810Z,8.66
2023-03-10T18:03:04.610Z,8.67
2023-03-10T18:05:31.953Z,8.75
2023-03-10T18:07:59.391Z,8.54
2023-03-10T18:10:26.152Z,8.47
2023-03-10T18:12:52.949Z,8.35
2023-03-10T18:15:19.613Z,8.39
2023-03-10T18:17:46.244Z,8.32
2023-03-10T18:20:15.149Z,8.26
2023-03-10T18:22:41.801Z,8.16
2023-03-10T18:25:08.864Z,8.18
2023-03-10T18:27:35.558Z,8.03
2023-03-10T18:30:02.456Z,7.94
2023-03-10T18:32:29.749Z,8.02
2023-03-10T18:35:02.391Z,7.98
2023-03-10T18:37:32.412Z,7.72
2023-03-10T18:40:00.260Z,7.58
2023-03-10T18:42:27.839Z,7.30
2023-03-10T18:44:55.215Z,7.52
2023-03-10T18:47:21.969Z,7.42
2023-03-10T18:49:49.037Z,7.28
2023-03-10T18:52:16.241Z,7.20
2023-03-10T18:54:47.248Z,7.24
2023-03-10T18:57:15.276Z,7.26
2023-03-10T18:59:42.518Z,7.14
2023-03-10T19:02:14.363Z,7.18
2023-03-10T19:04:41.360Z,7.21
2023-03-10T19:07:08.604Z,7.24
2023-03-10T19:09:35.384Z,7.23
2023-03-10T19:12:02.254Z,7.21
2023-03-10T19:14:29.081Z,7.33
2023-03-10T19:16:55.810Z,7.46
2023-03-10T19:19:22.676Z,7.54
2023-03-10T19:21:49.665Z,7.45
2023-03-10T19:24:16.364Z,7.43
2023-03-10T19:26:43.588Z,7.53
2023-03-10T19:29:10.487Z,7.90
2023-03-10T19:31:37.422Z,7.67
2023-03-10T19:34:04.330Z,7.60
2023-03-10T19:36:31.186Z,7.53
2023-03-10T19:38:57.956Z,7.43
2023-03-10T19:41:24.739Z,7.29
2023-03-10T19:43:51.510Z,7.31
2023-03-10T19:46:18.777Z,7.27
2023-03-10T19:48:45.708Z,7.25
2023-03-10T19:51:38.664Z,6.91
2023-03-10T19:54:05.907Z,6.98
2023-03-10T19:56:33.534Z,6.90
2023-03-10T19:59:00.548Z,6.84
2023-03-10T20:01:27.805Z,6.98
2023-03-10T20:03:57.031Z,7.13
2023-03-10T20:06:23.810Z,7.13
2023-03-10T20:08:52.043Z,7.02
2023-03-10T20:11:19.793Z,6.88
2023-03-10T20:13:47.190Z,6.81
2023-03-10T20:16:15.337Z,7.08
2023-03-10T20:18:42.101Z,7.13
2023-03-10T20:21:08.870Z,6.99
2023-03-10T20:23:35.954Z,7.10
2023-03-10T20:26:05.339Z,7.03
2023-03-10T20:28:33.480Z,6.75
2023-03-10T20:31:00.311Z,6.54
2023-03-10T20:33:27.574Z,6.48
2023-03-10T20:35:54.873Z,6.52
2023-03-10T20:38:22.364Z,6.42
2023-03-10T20:40:49.456Z,6.62
2023-03-10T20:43:17.623Z,6.66
2023-03-10T20:45:44.454Z,6.59
2023-03-10T20:48:11.460Z,6.50
2023-03-10T20:50:38.410Z,6.47
2023-03-10T20:53:05.371Z,6.62
2023-03-10T20:55:33.102Z,6.76
2023-03-10T20:58:00.899Z,6.82
2023-03-10T21:00:29.727Z,6.89
2023-03-10T21:02:57.427Z,6.93
2023-03-10T21:05:26.587Z,7.05
2023-03-10T21:07:53.491Z,6.84
2023-03-10T21:10:20.432Z,6.78
2023-03-10T21:12:47.188Z,6.96
2023-03-10T21:15:16.518Z,7.01
2023-03-10T21:17:44.068Z,6.91
2023-03-10T21:20:12.208Z,7.35
2023-03-10T21:22:39.897Z,7.02
2023-03-10T21:25:09.057Z,6.99
2023-03-10T21:27:35.755Z,6.79
2023-03-10T21:30:05.351Z,6.63
2023-03-10T21:32:33.119Z,6.77
2023-03-10T21:34:59.865Z,6.52
2023-03-10T21:37:26.559Z,6.46
2023-03-10T21:39:54.001Z,6.35
2023-03-10T21:42:20.639Z,6.50
2023-03-10T21:44:48.477Z,6.75
2023-03-10T21:47:15.275Z,6.75
2023-03-10T21:49:41.930Z,6.63
2023-03-10T21:52:09.782Z,6.58
2023-03-10T21:54:36.553Z,6.48
2023-03-10T21:57:03.259Z,6.17
2023-03-10T21:59:30.188Z,6.13
2023-03-10T22:01:56.896Z,6.70
2023-03-10T22:04:23.717Z,6.65
2023-03-10T22:06:50.365Z,6.64
2023-03-10T22:09:17.007Z,6.29
2023-03-10T22:11:43.656Z,6.03
2023-03-10T22:14:10.911Z,5.94
2023-03-10T22:16:37.623Z,6.36
2023-03-10T22:19:04.369Z,6.44
2023-03-10T22:21:31.136Z,6.56
2023-03-10T22:23:57.761Z,6.46
2023-03-10T22:26:24.408Z,6.25
2023-03-10T22:28:51.100Z,6.36
2023-03-10T22:31:18.344Z,6.53
2023-03-10T22:33:44.995Z,6.66
2023-03-10T22:36:13.433Z,6.71
2023-03-10T22:38:40.191Z,6.70
2023-03-10T22:41:11.648Z,6.69
2023-03-10T22:43:38.423Z,6.69
2023-03-10T22:46:12.990Z,6.54
2023-03-10T22:48:40.395Z,6.57
2023-03-10T22:51:13.847Z,6.56
2023-03-10T22:53:40.477Z,6.48
2023-03-10T22:56:07.644Z,6.38
2023-03-10T22:58:34.446Z,6.17
2023-03-10T23:01:01.133Z,6.00
2023-03-10T23:03:27.795Z,5.92
2023-03-10T23:05:54.500Z,5.96
2023-03-10T23:08:21.149Z,5.90
2023-03-10T23:10:47.784Z,5.72
2023-03-10T23:13:15.637Z,5.77
2023-03-10T23:15:43.202Z,5.73
2023-03-10T23:18:10.529Z,5.71
2023-03-10T23:20:43.322Z,5.65
2023-03-10T23:23:12.105Z,5.57
2023-03-10T23:25:46.891Z,5.49
2023-03-10T23:28:15.107Z,5.57
2023-03-10T23:30:43.892Z,5.56
2023-03-10T23:33:13.517Z,5.58
2023-03-10T23:35:40.427Z,5.63
2023-03-10T23:38:07.162Z,5.71
2023-03-10T23:40:35.333Z,5.53
2023-03-10T23:43:04.345Z,5.41
2023-03-10T23:45:32.217Z,5.56
2023-03-10T23:48:01.454Z,5.49
2023-03-10T23:50:37.028Z,5.66
2023-03-10T23:53:05.433Z,5.57
2023-03-10T23:55:34.479Z,5.44
2023-03-10T23:58:01.108Z,5.36
